sensor_id;sensor_type;location;lat;lon;timestamp;P1;durP1;ratioP1;P2;durP2;ratioP2
15643;SDS011;7921;43.586;1.408;2022-09-12T00:00:27;2.20;;;1.23;;
15643;SDS011;7921;43.586;1.408;2022-09-12T00:02:55;2.17;;;1.10;;
15643;SDS011;7921;43.586;1.408;2022-09-12T00:05:21;1.10;;;0.82;;
15643;SDS011;7921;43.586;1.408;2022-09-12T00:07:46;1.77;;;0.90;;
15643;SDS011;7921;43.586;1.408;2022-09-12T00:10:12;2.15;;;1.00;;
15643;SDS011;7921;43.586;1.408;2022-09-12T00:12:38;1.63;;;0.90;;
15643;SDS011;7921;43.586;1.408;2022-09-12T00:15:03;1.70;;;0.90;;
15643;SDS011;7921;43.586;1.408;2022-09-12T00:17:30;1.92;;;1.20;;
15643;SDS011;7921;43.586;1.408;2022-09-12T00:19:58;2.13;;;1.00;;
15643;SDS011;7921;43.586;1.408;2022-09-12T00:22:23;2.25;;;0.90;;
15643;SDS011;7921;43.586;1.408;2022-09-12T00:24:49;1.23;;;1.10;;
15643;SDS011;7921;43.586;1.408;2022-09-12T00:27:14;0.95;;;0.85;;
15643;SDS011;7921;43.586;1.408;2022-09-12T00:29:40;1.88;;;0.80;;
15643;SDS011;7921;43.586;1.408;2022-09-12T00:32:05;2.15;;;0.95;;
15643;SDS011;7921;43.586;1.408;2022-09-12T00:34:30;1.85;;;1.23;;
15643;SDS011;7921;43.586;1.408;2022-09-12T00:36:56;3.28;;;1.00;;
15643;SDS011;7921;43.586;1.408;2022-09-12T00:39:21;1.13;;;1.00;;
15643;SDS011;7921;43.586;1.408;2022-09-12T00:41:46;1.73;;;0.80;;
15643;SDS011;7921;43.586;1.408;2022-09-12T00:49:32;1.83;;;1.13;;
15643;SDS011;7921;43.586;1.408;2022-09-12T00:54:37;2.35;;;1.30;;
15643;SDS011;7921;43.586;1.408;2022-09-12T00:57:05;1.85;;;1.10;;
15643;SDS011;7921;43.586;1.408;2022-09-12T00:59:37;0.82;;;0.70;;
15643;SDS011;7921;43.586;1.408;2022-09-12T01:02:06;1.05;;;0.80;;
15643;SDS011;7921;43.586;1.408;2022-09-12T01:04:32;1.45;;;1.00;;
15643;SDS011;7921;43.586;1.408;2022-09-12T01:07:00;1.38;;;1.17;;
15643;SDS011;7921;43.586;1.408;2022-09-12T01:09:28;2.95;;;1.05;;
15643;SDS011;7921;43.586;1.408;2022-09-12T01:11:53;1.27;;;1.17;;
15643;SDS011;7921;43.586;1.408;2022-09-12T01:14:19;2.50;;;1.33;;
15643;SDS011;7921;43.586;1.408;2022-09-12T01:16:45;1.90;;;0.82;;
15643;SDS011;7921;43.586;1.408;2022-09-12T01:46:16;2.47;;;1.45;;
15643;SDS011;7921;43.586;1.408;2022-09-12T01:48:45;1.98;;;0.95;;
15643;SDS011;7921;43.586;1.408;2022-09-12T01:51:18;2.72;;;1.15;;
15643;SDS011;7921;43.586;1.408;2022-09-12T01:53:49;2.65;;;0.98;;
15643;SDS011;7921;43.586;1.408;2022-09-12T01:56:17;2.15;;;1.00;;
15643;SDS011;7921;43.586;1.408;2022-09-12T01:59:03;1.17;;;1.05;;
15643;SDS011;7921;43.586;1.408;2022-09-12T02:01:30;2.40;;;1.02;;
15643;SDS011;7921;43.586;1.408;2022-09-12T02:04:09;2.15;;;0.95;;
15643;SDS011;7921;43.586;1.408;2022-09-12T02:06:48;2.53;;;1.00;;
15643;SDS011;7921;43.586;1.408;2022-09-12T02:09:21;2.05;;;1.25;;
15643;SDS011;7921;43.586;1.408;2022-09-12T02:11:49;2.47;;;1.00;;
15643;SDS011;7921;43.586;1.408;2022-09-12T02:14:26;2.58;;;1.63;;
15643;SDS011;7921;43.586;1.408;2022-09-12T02:17:02;2.75;;;1.20;;
15643;SDS011;7921;43.586;1.408;2022-09-12T02:19:41;3.58;;;1.20;;
15643;SDS011;7921;43.586;1.408;2022-09-12T02:22:10;1.63;;;1.05;;
15643;SDS011;7921;43.586;1.408;2022-09-12T02:24:40;3.78;;;1.10;;
15643;SDS011;7921;43.586;1.408;2022-09-12T02:27:15;1.92;;;1.05;;
15643;SDS011;7921;43.586;1.408;2022-09-12T02:29:41;3.42;;;1.30;;
15643;SDS011;7921;43.586;1.408;2022-09-12T02:32:14;3.55;;;1.30;;
15643;SDS011;7921;43.586;1.408;2022-09-12T02:40:07;2.05;;;0.90;;
15643;SDS011;7921;43.586;1.408;2022-09-12T02:42:34;2.30;;;1.15;;
15643;SDS011;7921;43.586;1.408;2022-09-12T02:45:00;3.00;;;1.00;;
15643;SDS011;7921;43.586;1.408;2022-09-12T02:47:29;1.73;;;1.00;;
15643;SDS011;7921;43.586;1.408;2022-09-12T02:49:58;2.33;;;0.88;;
15643;SDS011;7921;43.586;1.408;2022-09-12T02:52:24;1.73;;;1.05;;
15643;SDS011;7921;43.586;1.408;2022-09-12T02:54:50;2.05;;;1.17;;
15643;SDS011;7921;43.586;1.408;2022-09-12T02:57:17;4.22;;;1.17;;
15643;SDS011;7921;43.586;1.408;2022-09-12T02:59:44;1.42;;;0.80;;
15643;SDS011;7921;43.586;1.408;2022-09-12T03:04:52;1.88;;;0.90;;
15643;SDS011;7921;43.586;1.408;2022-09-12T03:10:13;1.55;;;1.20;;
15643;SDS011;7921;43.586;1.408;2022-09-12T03:19:51;2.22;;;1.02;;
15643;SDS011;7921;43.586;1.408;2022-09-12T03:22:14;2.60;;;1.10;;
15643;SDS011;7921;43.586;1.408;2022-09-12T03:24:50;4.90;;;1.25;;
15643;SDS011;7921;43.586;1.408;2022-09-12T03:27:21;1.70;;;1.08;;
15643;SDS011;7921;43.586;1.408;2022-09-12T03:29:51;3.08;;;1.25;;
15643;SDS011;7921;43.586;1.408;2022-09-12T03:32:17;2.10;;;1.27;;
15643;SDS011;7921;43.586;1.408;2022-09-12T03:34:43;3.05;;;1.30;;
15643;SDS011;7921;43.586;1.408;2022-09-12T03:37:08;2.95;;;1.13;;
15643;SDS011;7921;43.586;1.408;2022-09-12T03:39:33;3.08;;;1.63;;
15643;SDS011;7921;43.586;1.408;2022-09-12T03:41:59;3.97;;;1.20;;
15643;SDS011;7921;43.586;1.408;2022-09-12T03:44:24;2.97;;;1.38;;
15643;SDS011;7921;43.586;1.408;2022-09-12T03:46:50;2.28;;;1.15;;
15643;SDS011;7921;43.586;1.408;2022-09-12T03:49:15;2.83;;;1.27;;
15643;SDS011;7921;43.586;1.408;2022-09-12T03:51:41;2.75;;;1.30;;
15643;SDS011;7921;43.586;1.408;2022-09-12T03:54:07;3.78;;;1.45;;
15643;SDS011;7921;43.586;1.408;2022-09-12T03:56:33;2.22;;;1.13;;
15643;SDS011;7921;43.586;1.408;2022-09-12T03:58:59;1.55;;;1.10;;
15643;SDS011;7921;43.586;1.408;2022-09-12T04:01:24;1.88;;;1.17;;
15643;SDS011;7921;43.586;1.408;2022-09-12T04:03:50;1.98;;;1.30;;
15643;SDS011;7921;43.586;1.408;2022-09-12T04:06:17;3.55;;;1.10;;
15643;SDS011;7921;43.586;1.408;2022-09-12T04:08:46;1.80;;;1.10;;
15643;SDS011;7921;43.586;1.408;2022-09-12T04:11:14;2.50;;;1.10;;
15643;SDS011;7921;43.586;1.408;2022-09-12T04:13:41;1.75;;;1.13;;
15643;SDS011;7921;43.586;1.408;2022-09-12T04:16:07;3.45;;;1.48;;
15643;SDS011;7921;43.586;1.408;2022-09-12T04:18:34;2.53;;;1.10;;
15643;SDS011;7921;43.586;1.408;2022-09-12T04:21:06;1.88;;;1.20;;
15643;SDS011;7921;43.586;1.408;2022-09-12T04:23:32;1.73;;;1.20;;
15643;SDS011;7921;43.586;1.408;2022-09-12T04:25:59;2.25;;;1.27;;
15643;SDS011;7921;43.586;1.408;2022-09-12T04:28:25;2.58;;;1.40;;
15643;SDS011;7921;43.586;1.408;2022-09-12T04:30:53;2.72;;;1.70;;
15643;SDS011;7921;43.586;1.408;2022-09-12T04:33:18;2.22;;;1.73;;
15643;SDS011;7921;43.586;1.408;2022-09-12T04:35:44;1.88;;;1.40;;
15643;SDS011;7921;43.586;1.408;2022-09-12T04:38:09;1.75;;;1.23;;
15643;SDS011;7921;43.586;1.408;2022-09-12T04:40:35;2.75;;;1.38;;
15643;SDS011;7921;43.586;1.408;2022-09-12T04:43:01;2.38;;;1.50;;
15643;SDS011;7921;43.586;1.408;2022-09-12T04:45:26;2.25;;;1.73;;
15643;SDS011;7921;43.586;1.408;2022-09-12T04:47:51;4.38;;;1.88;;
15643;SDS011;7921;43.586;1.408;2022-09-12T04:50:17;3.25;;;1.80;;
15643;SDS011;7921;43.586;1.408;2022-09-12T04:52:42;2.47;;;1.80;;
15643;SDS011;7921;43.586;1.408;2022-09-12T04:55:08;2.70;;;1.73;;
15643;SDS011;7921;43.586;1.408;2022-09-12T04:57:34;2.08;;;1.70;;
15643;SDS011;7921;43.586;1.408;2022-09-12T04:59:59;2.90;;;1.55;;
15643;SDS011;7921;43.586;1.408;2022-09-12T05:02:25;2.67;;;2.00;;
15643;SDS011;7921;43.586;1.408;2022-09-12T05:04:50;3.47;;;1.88;;
15643;SDS011;7921;43.586;1.408;2022-09-12T05:07:16;2.45;;;1.92;;
15643;SDS011;7921;43.586;1.408;2022-09-12T05:09:44;1.92;;;1.80;;
15643;SDS011;7921;43.586;1.408;2022-09-12T05:12:10;2.08;;;1.83;;
15643;SDS011;7921;43.586;1.408;2022-09-12T05:14:36;3.17;;;1.80;;
15643;SDS011;7921;43.586;1.408;2022-09-12T05:17:02;2.22;;;1.92;;
15643;SDS011;7921;43.586;1.408;2022-09-12T05:19:28;1.80;;;1.63;;
15643;SDS011;7921;43.586;1.408;2022-09-12T05:21:54;4.88;;;2.00;;
15643;SDS011;7921;43.586;1.408;2022-09-12T05:24:20;2.60;;;1.98;;
15643;SDS011;7921;43.586;1.408;2022-09-12T05:26:45;1.90;;;1.75;;
15643;SDS011;7921;43.586;1.408;2022-09-12T05:29:11;2.75;;;2.22;;
15643;SDS011;7921;43.586;1.408;2022-09-12T05:31:37;1.95;;;1.80;;
15643;SDS011;7921;43.586;1.408;2022-09-12T05:34:03;4.30;;;2.10;;
15643;SDS011;7921;43.586;1.408;2022-09-12T05:36:31;2.58;;;2.00;;
15643;SDS011;7921;43.586;1.408;2022-09-12T05:38:57;2.97;;;2.03;;
15643;SDS011;7921;43.586;1.408;2022-09-12T05:41:25;2.45;;;2.10;;
15643;SDS011;7921;43.586;1.408;2022-09-12T05:43:52;2.35;;;1.95;;
15643;SDS011;7921;43.586;1.408;2022-09-12T05:46:19;2.25;;;2.08;;
15643;SDS011;7921;43.586;1.408;2022-09-12T05:48:46;2.05;;;1.77;;
15643;SDS011;7921;43.586;1.408;2022-09-12T05:51:19;1.63;;;1.52;;
15643;SDS011;7921;43.586;1.408;2022-09-12T05:53:48;2.00;;;1.85;;
15643;SDS011;7921;43.586;1.408;2022-09-12T05:56:19;1.95;;;1.77;;
15643;SDS011;7921;43.586;1.408;2022-09-12T05:58:53;2.58;;;2.10;;
15643;SDS011;7921;43.586;1.408;2022-09-12T06:01:20;3.25;;;2.17;;
15643;SDS011;7921;43.586;1.408;2022-09-12T06:03:49;1.80;;;1.70;;
15643;SDS011;7921;43.586;1.408;2022-09-12T06:06:16;2.20;;;2.00;;
15643;SDS011;7921;43.586;1.408;2022-09-12T06:08:45;2.20;;;1.98;;
15643;SDS011;7921;43.586;1.408;2022-09-12T06:11:17;1.83;;;1.60;;
15643;SDS011;7921;43.586;1.408;2022-09-12T06:13:44;1.63;;;1.52;;
15643;SDS011;7921;43.586;1.408;2022-09-12T06:16:14;1.98;;;1.80;;
15643;SDS011;7921;43.586;1.408;2022-09-12T06:18:45;1.60;;;1.50;;
15643;SDS011;7921;43.586;1.408;2022-09-12T06:21:14;1.45;;;1.35;;
15643;SDS011;7921;43.586;1.408;2022-09-12T06:23:40;1.55;;;1.27;;
15643;SDS011;7921;43.586;1.408;2022-09-12T06:26:07;2.25;;;1.73;;
15643;SDS011;7921;43.586;1.408;2022-09-12T06:28:34;2.25;;;1.20;;
15643;SDS011;7921;43.586;1.408;2022-09-12T06:31:05;4.07;;;1.60;;
15643;SDS011;7921;43.586;1.408;2022-09-12T06:33:32;1.50;;;1.23;;
15643;SDS011;7921;43.586;1.408;2022-09-12T06:36:02;1.65;;;1.40;;
15643;SDS011;7921;43.586;1.408;2022-09-12T06:38:28;1.48;;;1.20;;
15643;SDS011;7921;43.586;1.408;2022-09-12T06:40:54;1.95;;;1.50;;
15643;SDS011;7921;43.586;1.408;2022-09-12T06:43:20;2.25;;;1.38;;
15643;SDS011;7921;43.586;1.408;2022-09-12T06:45:48;3.10;;;1.60;;
15643;SDS011;7921;43.586;1.408;2022-09-12T06:48:14;1.92;;;1.73;;
15643;SDS011;7921;43.586;1.408;2022-09-12T06:50:39;2.13;;;1.50;;
15643;SDS011;7921;43.586;1.408;2022-09-12T06:53:05;1.88;;;1.20;;
15643;SDS011;7921;43.586;1.408;2022-09-12T06:55:31;2.03;;;1.42;;
15643;SDS011;7921;43.586;1.408;2022-09-12T06:57:57;3.78;;;1.67;;
15643;SDS011;7921;43.586;1.408;2022-09-12T07:00:23;2.70;;;1.42;;
15643;SDS011;7921;43.586;1.408;2022-09-12T07:02:52;2.55;;;1.42;;
15643;SDS011;7921;43.586;1.408;2022-09-12T07:05:18;1.70;;;1.40;;
15643;SDS011;7921;43.586;1.408;2022-09-12T07:07:43;3.55;;;1.33;;
15643;SDS011;7921;43.586;1.408;2022-09-12T07:10:09;4.32;;;1.70;;
15643;SDS011;7921;43.586;1.408;2022-09-12T07:12:36;1.65;;;1.52;;
15643;SDS011;7921;43.586;1.408;2022-09-12T07:15:01;2.30;;;1.50;;
15643;SDS011;7921;43.586;1.408;2022-09-12T07:17:26;3.35;;;1.50;;
15643;SDS011;7921;43.586;1.408;2022-09-12T07:19:52;4.30;;;1.42;;
15643;SDS011;7921;43.586;1.408;2022-09-12T07:22:17;2.80;;;1.38;;
15643;SDS011;7921;43.586;1.408;2022-09-12T07:24:43;1.75;;;1.10;;
15643;SDS011;7921;43.586;1.408;2022-09-12T07:27:09;1.40;;;1.30;;
15643;SDS011;7921;43.586;1.408;2022-09-12T07:29:35;1.40;;;1.30;;
15643;SDS011;7921;43.586;1.408;2022-09-12T07:32:00;1.45;;;1.10;;
15643;SDS011;7921;43.586;1.408;2022-09-12T07:34:26;1.40;;;1.17;;
15643;SDS011;7921;43.586;1.408;2022-09-12T07:36:51;2.78;;;1.40;;
15643;SDS011;7921;43.586;1.408;2022-09-12T07:39:17;1.40;;;1.30;;
15643;SDS011;7921;43.586;1.408;2022-09-12T07:41:42;2.22;;;1.40;;
15643;SDS011;7921;43.586;1.408;2022-09-12T07:44:07;2.85;;;1.20;;
15643;SDS011;7921;43.586;1.408;2022-09-12T07:46:33;2.67;;;1.25;;
15643;SDS011;7921;43.586;1.408;2022-09-12T07:48:59;1.30;;;1.20;;
15643;SDS011;7921;43.586;1.408;2022-09-12T07:51:25;1.75;;;1.02;;
15643;SDS011;7921;43.586;1.408;2022-09-12T07:53:52;3.50;;;1.40;;
15643;SDS011;7921;43.586;1.408;2022-09-12T07:56:18;1.85;;;1.48;;
15643;SDS011;7921;43.586;1.408;2022-09-12T07:58:44;3.28;;;1.58;;
15643;SDS011;7921;43.586;1.408;2022-09-12T08:01:14;1.45;;;1.05;;
15643;SDS011;7921;43.586;1.408;2022-09-12T08:03:42;3.50;;;1.30;;
15643;SDS011;7921;43.586;1.408;2022-09-12T08:06:10;3.95;;;1.20;;
15643;SDS011;7921;43.586;1.408;2022-09-12T08:08:38;3.70;;;1.38;;
15643;SDS011;7921;43.586;1.408;2022-09-12T08:11:05;1.77;;;1.40;;
15643;SDS011;7921;43.586;1.408;2022-09-12T08:13:32;2.95;;;1.20;;
15643;SDS011;7921;43.586;1.408;2022-09-12T08:15:59;2.03;;;1.13;;
15643;SDS011;7921;43.586;1.408;2022-09-12T08:18:26;2.58;;;1.10;;
15643;SDS011;7921;43.586;1.408;2022-09-12T08:20:56;2.58;;;1.10;;
15643;SDS011;7921;43.586;1.408;2022-09-12T08:23:25;1.77;;;1.20;;
15643;SDS011;7921;43.586;1.408;2022-09-12T08:25:54;2.88;;;1.42;;
15643;SDS011;7921;43.586;1.408;2022-09-12T08:28:23;1.98;;;1.20;;
15643;SDS011;7921;43.586;1.408;2022-09-12T08:30:49;1.95;;;1.23;;
15643;SDS011;7921;43.586;1.408;2022-09-12T08:33:15;3.22;;;1.48;;
15643;SDS011;7921;43.586;1.408;2022-09-12T08:35:40;1.85;;;1.20;;
15643;SDS011;7921;43.586;1.408;2022-09-12T08:38:06;3.25;;;1.38;;
15643;SDS011;7921;43.586;1.408;2022-09-12T08:40:32;1.98;;;1.52;;
15643;SDS011;7921;43.586;1.408;2022-09-12T08:43:13;2.20;;;1.25;;
15643;SDS011;7921;43.586;1.408;2022-09-12T08:46:01;4.05;;;1.50;;
15643;SDS011;7921;43.586;1.408;2022-09-12T08:48:32;2.97;;;1.50;;
15643;SDS011;7921;43.586;1.408;2022-09-12T08:50:58;2.20;;;1.17;;
15643;SDS011;7921;43.586;1.408;2022-09-12T08:53:23;1.98;;;1.17;;
15643;SDS011;7921;43.586;1.408;2022-09-12T08:55:57;4.97;;;1.30;;
15643;SDS011;7921;43.586;1.408;2022-09-12T08:58:24;3.90;;;1.23;;
15643;SDS011;7921;43.586;1.408;2022-09-12T09:18:09;3.33;;;1.40;;
15643;SDS011;7921;43.586;1.408;2022-09-12T09:20:37;2.55;;;0.80;;
15643;SDS011;7921;43.586;1.408;2022-09-12T09:23:10;3.47;;;1.10;;
15643;SDS011;7921;43.586;1.408;2022-09-12T09:26:26;2.13;;;0.90;;
15643;SDS011;7921;43.586;1.408;2022-09-12T09:28:45;4.00;;;1.30;;
15643;SDS011;7921;43.586;1.408;2022-09-12T09:31:18;4.25;;;1.05;;
15643;SDS011;7921;43.586;1.408;2022-09-12T09:33:45;2.65;;;1.10;;
15643;SDS011;7921;43.586;1.408;2022-09-12T09:43:42;3.15;;;1.05;;
15643;SDS011;7921;43.586;1.408;2022-09-12T09:46:08;5.15;;;1.20;;
15643;SDS011;7921;43.586;1.408;2022-09-12T09:48:36;1.58;;;0.90;;
15643;SDS011;7921;43.586;1.408;2022-09-12T09:51:03;2.03;;;1.00;;
15643;SDS011;7921;43.586;1.408;2022-09-12T09:56:35;2.50;;;1.20;;
15643;SDS011;7921;43.586;1.408;2022-09-12T10:04:25;1.48;;;1.38;;
15643;SDS011;7921;43.586;1.408;2022-09-12T10:06:52;1.48;;;1.23;;
15643;SDS011;7921;43.586;1.408;2022-09-12T10:09:21;3.72;;;1.30;;
15643;SDS011;7921;43.586;1.408;2022-09-12T10:11:48;3.67;;;1.20;;
15643;SDS011;7921;43.586;1.408;2022-09-12T10:17:03;2.08;;;0.90;;
15643;SDS011;7921;43.586;1.408;2022-09-12T10:19:47;2.00;;;1.00;;
15643;SDS011;7921;43.586;1.408;2022-09-12T10:22:15;5.00;;;1.20;;
15643;SDS011;7921;43.586;1.408;2022-09-12T10:24:45;1.15;;;0.88;;
15643;SDS011;7921;43.586;1.408;2022-09-12T10:27:18;1.75;;;0.80;;
15643;SDS011;7921;43.586;1.408;2022-09-12T10:29:46;2.22;;;1.30;;
15643;SDS011;7921;43.586;1.408;2022-09-12T10:32:18;4.22;;;1.10;;
15643;SDS011;7921;43.586;1.408;2022-09-12T10:34:44;2.35;;;1.10;;
15643;SDS011;7921;43.586;1.408;2022-09-12T10:37:16;4.22;;;1.10;;
15643;SDS011;7921;43.586;1.408;2022-09-12T10:39:48;2.63;;;1.10;;
15643;SDS011;7921;43.586;1.408;2022-09-12T10:42:39;1.85;;;0.80;;
15643;SDS011;7921;43.586;1.408;2022-09-12T10:45:17;2.53;;;1.17;;
15643;SDS011;7921;43.586;1.408;2022-09-12T10:47:42;2.45;;;1.20;;
15643;SDS011;7921;43.586;1.408;2022-09-12T10:53:28;3.72;;;1.40;;
15643;SDS011;7921;43.586;1.408;2022-09-12T10:56:09;4.35;;;1.35;;
15643;SDS011;7921;43.586;1.408;2022-09-12T11:31:53;3.72;;;1.30;;
15643;SDS011;7921;43.586;1.408;2022-09-12T11:34:28;2.85;;;1.42;;
15643;SDS011;7921;43.586;1.408;2022-09-12T11:37:04;2.67;;;1.48;;
15643;SDS011;7921;43.586;1.408;2022-09-12T11:39:42;3.63;;;1.40;;
15643;SDS011;7921;43.586;1.408;2022-09-12T11:42:12;3.30;;;1.50;;
15643;SDS011;7921;43.586;1.408;2022-09-12T11:44:41;2.53;;;1.30;;
15643;SDS011;7921;43.586;1.408;2022-09-12T11:47:11;1.63;;;1.00;;
15643;SDS011;7921;43.586;1.408;2022-09-12T11:49:42;1.92;;;1.25;;
15643;SDS011;7921;43.586;1.408;2022-09-12T11:57:44;2.88;;;1.52;;
15643;SDS011;7921;43.586;1.408;2022-09-12T12:08:08;3.75;;;1.52;;
15643;SDS011;7921;43.586;1.408;2022-09-12T12:10:39;3.13;;;1.60;;
15643;SDS011;7921;43.586;1.408;2022-09-12T12:16:05;5.63;;;1.60;;
15643;SDS011;7921;43.586;1.408;2022-09-12T12:18:32;6.63;;;2.13;;
15643;SDS011;7921;43.586;1.408;2022-09-12T12:27:21;3.88;;;1.70;;
15643;SDS011;7921;43.586;1.408;2022-09-12T12:34:30;2.15;;;1.95;;
15643;SDS011;7921;43.586;1.408;2022-09-12T12:42:09;1.58;;;1.40;;
15643;SDS011;7921;43.586;1.408;2022-09-12T12:44:55;4.40;;;1.33;;
15643;SDS011;7921;43.586;1.408;2022-09-12T12:47:21;1.83;;;1.08;;
15643;SDS011;7921;43.586;1.408;2022-09-12T12:49:51;4.65;;;1.13;;
15643;SDS011;7921;43.586;1.408;2022-09-12T12:52:19;1.60;;;1.20;;
15643;SDS011;7921;43.586;1.408;2022-09-12T12:57:30;1.88;;;1.27;;
15643;SDS011;7921;43.586;1.408;2022-09-12T13:05:29;3.35;;;1.27;;
15643;SDS011;7921;43.586;1.408;2022-09-12T13:08:06;2.17;;;1.30;;
15643;SDS011;7921;43.586;1.408;2022-09-12T13:10:50;2.90;;;1.38;;
15643;SDS011;7921;43.586;1.408;2022-09-12T13:13:24;3.20;;;1.33;;
15643;SDS011;7921;43.586;1.408;2022-09-12T13:15:53;1.45;;;1.17;;
15643;SDS011;7921;43.586;1.408;2022-09-12T13:21:09;2.90;;;1.83;;
15643;SDS011;7921;43.586;1.408;2022-09-12T13:23:37;1.48;;;1.17;;
15643;SDS011;7921;43.586;1.408;2022-09-12T13:26:03;1.65;;;1.30;;
15643;SDS011;7921;43.586;1.408;2022-09-12T13:28:35;2.97;;;1.33;;
15643;SDS011;7921;43.586;1.408;2022-09-12T13:33:44;1.60;;;1.13;;
15643;SDS011;7921;43.586;1.408;2022-09-12T13:44:20;3.20;;;1.40;;
15643;SDS011;7921;43.586;1.408;2022-09-12T13:46:46;1.17;;;1.08;;
15643;SDS011;7921;43.586;1.408;2022-09-12T13:49:53;5.32;;;1.63;;
15643;SDS011;7921;43.586;1.408;2022-09-12T13:52:20;3.28;;;1.20;;
15643;SDS011;7921;43.586;1.408;2022-09-12T13:54:50;3.45;;;1.17;;
15643;SDS011;7921;43.586;1.408;2022-09-12T13:57:28;3.67;;;1.50;;
15643;SDS011;7921;43.586;1.408;2022-09-12T13:59:59;3.58;;;1.58;;
15643;SDS011;7921;43.586;1.408;2022-09-12T14:02:26;2.63;;;1.25;;
15643;SDS011;7921;43.586;1.408;2022-09-12T14:04:53;2.97;;;0.88;;
15643;SDS011;7921;43.586;1.408;2022-09-12T14:07:33;4.25;;;1.30;;
15643;SDS011;7921;43.586;1.408;2022-09-12T14:12:47;2.80;;;1.40;;
15643;SDS011;7921;43.586;1.408;2022-09-12T14:15:19;3.78;;;1.40;;
15643;SDS011;7921;43.586;1.408;2022-09-12T14:17:55;2.05;;;1.40;;
15643;SDS011;7921;43.586;1.408;2022-09-12T14:20:25;2.67;;;1.20;;
15643;SDS011;7921;43.586;1.408;2022-09-12T14:22:51;5.00;;;1.30;;
15643;SDS011;7921;43.586;1.408;2022-09-12T14:25:21;1.70;;;1.05;;
15643;SDS011;7921;43.586;1.408;2022-09-12T14:27:52;2.10;;;1.20;;
15643;SDS011;7921;43.586;1.408;2022-09-12T14:35:45;2.60;;;1.23;;
15643;SDS011;7921;43.586;1.408;2022-09-12T14:38:17;2.92;;;1.40;;
15643;SDS011;7921;43.586;1.408;2022-09-12T14:40:58;2.08;;;1.05;;
15643;SDS011;7921;43.586;1.408;2022-09-12T14:43:29;2.83;;;1.17;;
15643;SDS011;7921;43.586;1.408;2022-09-12T14:45:57;7.47;;;1.20;;
15643;SDS011;7921;43.586;1.408;2022-09-12T14:48:54;4.47;;;1.10;;
15643;SDS011;7921;43.586;1.408;2022-09-12T14:51:26;2.45;;;1.35;;
15643;SDS011;7921;43.586;1.408;2022-09-12T14:53:55;2.40;;;1.10;;
15643;SDS011;7921;43.586;1.408;2022-09-12T14:56:21;1.73;;;1.20;;
15643;SDS011;7921;43.586;1.408;2022-09-12T14:58:46;2.15;;;1.35;;
15643;SDS011;7921;43.586;1.408;2022-09-12T15:06:05;3.28;;;1.17;;
15643;SDS011;7921;43.586;1.408;2022-09-12T15:08:46;5.85;;;1.60;;
15643;SDS011;7921;43.586;1.408;2022-09-12T15:11:11;4.05;;;1.23;;
15643;SDS011;7921;43.586;1.408;2022-09-12T15:13:37;2.92;;;1.92;;
15643;SDS011;7921;43.586;1.408;2022-09-12T15:16:06;3.65;;;1.50;;
15643;SDS011;7921;43.586;1.408;2022-09-12T15:18:34;2.35;;;0.90;;
15643;SDS011;7921;43.586;1.408;2022-09-12T15:21:00;3.28;;;1.60;;
15643;SDS011;7921;43.586;1.408;2022-09-12T15:23:31;3.63;;;1.30;;
15643;SDS011;7921;43.586;1.408;2022-09-12T15:25:57;3.40;;;1.30;;
15643;SDS011;7921;43.586;1.408;2022-09-12T15:28:22;3.95;;;1.30;;
15643;SDS011;7921;43.586;1.408;2022-09-12T15:30:49;2.13;;;1.42;;
15643;SDS011;7921;43.586;1.408;2022-09-12T15:33:16;1.92;;;1.30;;
15643;SDS011;7921;43.586;1.408;2022-09-12T15:35:42;3.42;;;1.38;;
15643;SDS011;7921;43.586;1.408;2022-09-12T15:38:08;3.58;;;1.33;;
15643;SDS011;7921;43.586;1.408;2022-09-12T15:40:33;2.97;;;1.27;;
15643;SDS011;7921;43.586;1.408;2022-09-12T15:42:59;2.35;;;1.40;;
15643;SDS011;7921;43.586;1.408;2022-09-12T15:45:25;2.40;;;1.40;;
15643;SDS011;7921;43.586;1.408;2022-09-12T15:47:52;2.75;;;1.30;;
15643;SDS011;7921;43.586;1.408;2022-09-12T15:50:18;1.75;;;1.20;;
15643;SDS011;7921;43.586;1.408;2022-09-12T15:52:43;3.38;;;1.58;;
15643;SDS011;7921;43.586;1.408;2022-09-12T15:55:30;2.85;;;1.40;;
15643;SDS011;7921;43.586;1.408;2022-09-12T15:57:56;3.28;;;1.30;;
15643;SDS011;7921;43.586;1.408;2022-09-12T16:00:22;2.50;;;1.70;;
15643;SDS011;7921;43.586;1.408;2022-09-12T16:02:48;2.30;;;1.60;;
15643;SDS011;7921;43.586;1.408;2022-09-12T16:05:17;3.80;;;1.50;;
15643;SDS011;7921;43.586;1.408;2022-09-12T16:07:44;2.30;;;1.42;;
15643;SDS011;7921;43.586;1.408;2022-09-12T16:10:14;2.72;;;1.45;;
15643;SDS011;7921;43.586;1.408;2022-09-12T16:12:40;6.03;;;2.30;;
15643;SDS011;7921;43.586;1.408;2022-09-12T16:15:06;2.28;;;1.48;;
15643;SDS011;7921;43.586;1.408;2022-09-12T16:17:32;3.58;;;1.67;;
15643;SDS011;7921;43.586;1.408;2022-09-12T16:19:57;2.08;;;1.40;;
15643;SDS011;7921;43.586;1.408;2022-09-12T16:22:22;5.13;;;1.58;;
15643;SDS011;7921;43.586;1.408;2022-09-12T16:24:48;2.70;;;1.90;;
15643;SDS011;7921;43.586;1.408;2022-09-12T16:27:13;2.10;;;1.60;;
15643;SDS011;7921;43.586;1.408;2022-09-12T16:29:39;3.05;;;1.48;;
15643;SDS011;7921;43.586;1.408;2022-09-12T16:32:04;3.88;;;1.73;;
15643;SDS011;7921;43.586;1.408;2022-09-12T16:34:29;1.55;;;1.30;;
15643;SDS011;7921;43.586;1.408;2022-09-12T16:36:55;2.90;;;1.88;;
15643;SDS011;7921;43.586;1.408;2022-09-12T16:39:20;2.45;;;1.67;;
15643;SDS011;7921;43.586;1.408;2022-09-12T16:41:45;1.77;;;1.67;;
15643;SDS011;7921;43.586;1.408;2022-09-12T16:44:11;5.07;;;2.00;;
15643;SDS011;7921;43.586;1.408;2022-09-12T16:46:36;1.90;;;1.40;;
15643;SDS011;7921;43.586;1.408;2022-09-12T16:49:03;3.47;;;1.80;;
15643;SDS011;7921;43.586;1.408;2022-09-12T16:51:31;2.90;;;1.73;;
15643;SDS011;7921;43.586;1.408;2022-09-12T16:53:57;2.80;;;1.60;;
15643;SDS011;7921;43.586;1.408;2022-09-12T16:56:23;4.03;;;1.70;;
15643;SDS011;7921;43.586;1.408;2022-09-12T16:58:49;3.80;;;2.03;;
15643;SDS011;7921;43.586;1.408;2022-09-12T17:01:19;2.63;;;1.85;;
15643;SDS011;7921;43.586;1.408;2022-09-12T17:03:52;2.45;;;1.80;;
15643;SDS011;7921;43.586;1.408;2022-09-12T17:06:18;1.83;;;1.73;;
15643;SDS011;7921;43.586;1.408;2022-09-12T17:08:45;4.05;;;1.95;;
15643;SDS011;7921;43.586;1.408;2022-09-12T17:11:13;5.78;;;2.55;;
15643;SDS011;7921;43.586;1.408;2022-09-12T17:13:47;2.65;;;1.40;;
15643;SDS011;7921;43.586;1.408;2022-09-12T17:16:16;2.15;;;1.80;;
15643;SDS011;7921;43.586;1.408;2022-09-12T17:18:42;4.03;;;2.20;;
15643;SDS011;7921;43.586;1.408;2022-09-12T17:21:08;2.42;;;1.80;;
15643;SDS011;7921;43.586;1.408;2022-09-12T17:23:34;5.53;;;2.03;;
15643;SDS011;7921;43.586;1.408;2022-09-12T17:26:00;2.78;;;1.80;;
15643;SDS011;7921;43.586;1.408;2022-09-12T17:28:25;3.83;;;2.10;;
15643;SDS011;7921;43.586;1.408;2022-09-12T17:30:54;5.25;;;2.40;;
15643;SDS011;7921;43.586;1.408;2022-09-12T17:33:21;4.80;;;2.15;;
15643;SDS011;7921;43.586;1.408;2022-09-12T17:35:46;3.13;;;2.03;;
15643;SDS011;7921;43.586;1.408;2022-09-12T17:38:12;2.85;;;1.98;;
15643;SDS011;7921;43.586;1.408;2022-09-12T17:40:38;3.55;;;2.22;;
15643;SDS011;7921;43.586;1.408;2022-09-12T17:43:03;4.05;;;2.78;;
15643;SDS011;7921;43.586;1.408;2022-09-12T17:45:29;3.25;;;1.95;;
15643;SDS011;7921;43.586;1.408;2022-09-12T17:47:54;2.33;;;2.10;;
15643;SDS011;7921;43.586;1.408;2022-09-12T17:50:19;2.80;;;1.90;;
15643;SDS011;7921;43.586;1.408;2022-09-12T17:52:45;3.00;;;1.88;;
15643;SDS011;7921;43.586;1.408;2022-09-12T17:55:11;2.97;;;2.00;;
15643;SDS011;7921;43.586;1.408;2022-09-12T17:57:37;3.10;;;2.08;;
15643;SDS011;7921;43.586;1.408;2022-09-12T18:00:03;3.80;;;2.08;;
15643;SDS011;7921;43.586;1.408;2022-09-12T18:02:29;2.10;;;1.90;;
15643;SDS011;7921;43.586;1.408;2022-09-12T18:04:54;2.97;;;1.98;;
15643;SDS011;7921;43.586;1.408;2022-09-12T18:07:20;3.08;;;1.65;;
15643;SDS011;7921;43.586;1.408;2022-09-12T18:09:46;2.10;;;1.70;;
15643;SDS011;7921;43.586;1.408;2022-09-12T18:12:12;4.53;;;1.80;;
15643;SDS011;7921;43.586;1.408;2022-09-12T18:14:38;2.72;;;2.08;;
15643;SDS011;7921;43.586;1.408;2022-09-12T18:17:04;3.20;;;1.75;;
15643;SDS011;7921;43.586;1.408;2022-09-12T18:19:32;4.80;;;2.03;;